sensor_id;sensor_type;location;lat;lon;timestamp;pressure;altitude;pressure_sealevel;temperature;humidity
3254;BME280;1639;42.804;23.342;2023-01-01T00:00:42;75401.09;;;-148.52;100.00
3254;BME280;1639;42.804;23.342;2023-01-01T00:03:08;75411.44;;;-148.52;100.00
3254;BME280;1639;42.804;23.342;2023-01-01T00:05:33;75405.22;;;-148.52;100.00
3254;BME280;1639;42.804;23.342;2023-01-01T00:07:58;75413.50;;;-148.52;100.00
3254;BME280;1639;42.804;23.342;2023-01-01T00:10:24;75444.53;;;-148.52;100.00
3254;BME280;1639;42.804;23.342;2023-01-01T00:12:52;75436.28;;;-148.52;100.00
3254;BME280;1639;42.804;23.342;2023-01-01T00:15:18;75450.75;;;-148.52;100.00
3254;BME280;1639;42.804;23.342;2023-01-01T00:17:44;75438.34;;;-148.52;100.00
3254;BME280;1639;42.804;23.342;2023-01-01T00:20:09;75446.63;;;-148.52;100.00
3254;BME280;1639;42.804;23.342;2023-01-01T00:22:35;75463.16;;;-148.52;100.00
3254;BME280;1639;42.804;23.342;2023-01-01T00:25:01;75454.91;;;-148.52;100.00
3254;BME280;1639;42.804;23.342;2023-01-01T00:27:26;75456.97;;;-148.52;100.00
3254;BME280;1639;42.804;23.342;2023-01-01T00:29:51;75454.91;;;-148.52;100.00
3254;BME280;1639;42.804;23.342;2023-01-01T00:32:17;75463.16;;;-148.52;100.00
3254;BME280;1639;42.804;23.342;2023-01-01T00:34:42;75475.59;;;-148.52;100.00
3254;BME280;1639;42.804;23.342;2023-01-01T00:37:07;75459.03;;;-148.52;100.00
3254;BME280;1639;42.804;23.342;2023-01-01T00:39:33;75456.97;;;-148.52;100.00
3254;BME280;1639;42.804;23.342;2023-01-01T00:41:58;75444.53;;;-148.52;100.00
3254;BME280;1639;42.804;23.342;2023-01-01T00:44:24;75442.47;;;-148.52;100.00
3254;BME280;1639;42.804;23.342;2023-01-01T00:46:49;75446.63;;;-148.52;100.00
3254;BME280;1639;42.804;23.342;2023-01-01T00:49:14;75448.69;;;-148.52;100.00
3254;BME280;1639;42.804;23.342;2023-01-01T00:51:40;75456.97;;;-148.52;100.00
3254;BME280;1639;42.804;23.342;2023-01-01T00:54:05;75465.25;;;-148.52;100.00
3254;BME280;1639;42.804;23.342;2023-01-01T00:56:31;75473.53;;;-148.52;100.00
3254;BME280;1639;42.804;23.342;2023-01-01T00:58:56;75450.75;;;-148.52;100.00
3254;BME280;1639;42.804;23.342;2023-01-01T01:01:22;75454.91;;;-148.52;100.00
3254;BME280;1639;42.804;23.342;2023-01-01T01:03:47;75450.75;;;-148.52;100.00
3254;BME280;1639;42.804;23.342;2023-01-01T01:06:15;75450.75;;;-148.52;100.00
3254;BME280;1639;42.804;23.342;2023-01-01T01:08:43;75454.91;;;-148.52;100.00
3254;BME280;1639;42.804;23.342;2023-01-01T01:11:19;75459.03;;;-148.52;100.00
3254;BME280;1639;42.804;23.342;2023-01-01T01:13:47;75459.03;;;-148.52;100.00
3254;BME280;1639;42.804;23.342;2023-01-01T01:18:44;75473.53;;;-148.52;100.00
3254;BME280;1639;42.804;23.342;2023-01-01T01:21:10;75463.16;;;-148.52;100.00
3254;BME280;1639;42.804;23.342;2023-01-01T01:23:39;75463.16;;;-148.52;100.00
3254;BME280;1639;42.804;23.342;2023-01-01T01:26:17;75465.25;;;-148.52;100.00
3254;BME280;1639;42.804;23.342;2023-01-01T01:28:43;75465.25;;;-148.52;100.00
3254;BME280;1639;42.804;23.342;2023-01-01T01:31:09;75463.16;;;-148.52;100.00
3254;BME280;1639;42.804;23.342;2023-01-01T01:33:34;75459.03;;;-148.52;100.00
3254;BME280;1639;42.804;23.342;2023-01-01T01:36:01;75469.38;;;-148.52;100.00
3254;BME280;1639;42.804;23.342;2023-01-01T01:38:26;75479.72;;;-148.52;100.00
3254;BME280;1639;42.804;23.342;2023-01-01T01:40:52;75481.78;;;-148.52;100.00
3254;BME280;1639;42.804;23.342;2023-01-01T01:43:49;75488.00;;;-148.52;100.00
3254;BME280;1639;42.804;23.342;2023-01-01T01:46:34;75504.56;;;-148.52;100.00
3254;BME280;1639;42.804;23.342;2023-01-01T01:49:08;75504.56;;;-148.52;100.00
3254;BME280;1639;42.804;23.342;2023-01-01T01:51:38;75523.19;;;-148.52;100.00
3254;BME280;1639;42.804;23.342;2023-01-01T01:54:10;75516.97;;;-148.52;100.00
3254;BME280;1639;42.804;23.342;2023-01-01T01:56:51;75514.91;;;-148.52;100.00
3254;BME280;1639;42.804;23.342;2023-01-01T01:59:19;75519.06;;;-148.52;100.00
3254;BME280;1639;42.804;23.342;2023-01-01T02:01:46;75531.47;;;-148.52;100.00
3254;BME280;1639;42.804;23.342;2023-01-01T02:04:12;75550.09;;;-148.52;100.00
3254;BME280;1639;42.804;23.342;2023-01-01T02:06:37;75545.94;;;-148.52;100.00
3254;BME280;1639;42.804;23.342;2023-01-01T02:09:05;75550.09;;;-148.52;100.00
3254;BME280;1639;42.804;23.342;2023-01-01T02:11:31;75556.31;;;-148.52;100.00
3254;BME280;1639;42.804;23.342;2023-01-01T02:13:57;75554.22;;;-148.52;100.00
3254;BME280;1639;42.804;23.342;2023-01-01T02:29:29;75666.00;;;-148.52;100.00
3254;BME280;1639;42.804;23.342;2023-01-01T02:32:03;75666.00;;;-148.52;100.00
3254;BME280;1639;42.804;23.342;2023-01-01T02:34:34;75668.06;;;-148.52;100.00
3254;BME280;1639;42.804;23.342;2023-01-01T02:37:04;75647.34;;;-148.52;100.00
3254;BME280;1639;42.804;23.342;2023-01-01T02:39:32;75641.16;;;-148.52;100.00
3254;BME280;1639;42.804;23.342;2023-01-01T02:42:00;75647.34;;;-148.52;100.00
3254;BME280;1639;42.804;23.342;2023-01-01T02:44:29;75637.00;;;-148.52;100.00
3254;BME280;1639;42.804;23.342;2023-01-01T02:46:56;75624.59;;;-148.52;100.00
3254;BME280;1639;42.804;23.342;2023-01-01T02:49:29;75622.53;;;-148.52;100.00
3254;BME280;1639;42.804;23.342;2023-01-01T02:52:03;75637.00;;;-148.52;100.00
3254;BME280;1639;42.804;23.342;2023-01-01T02:57:29;75637.00;;;-148.52;100.00
3254;BME280;1639;42.804;23.342;2023-01-01T03:00:13;75637.00;;;-148.52;100.00
3254;BME280;1639;42.804;23.342;2023-01-01T03:05:59;75641.16;;;-148.52;100.00
3254;BME280;1639;42.804;23.342;2023-01-01T03:08:51;75653.56;;;-148.52;100.00
3254;BME280;1639;42.804;23.342;2023-01-01T03:11:21;75678.41;;;-148.52;100.00
3254;BME280;1639;42.804;23.342;2023-01-01T03:13:57;75713.59;;;-148.52;100.00
3254;BME280;1639;42.804;23.342;2023-01-01T03:16:31;75703.25;;;-148.52;100.00
3254;BME280;1639;42.804;23.342;2023-01-01T03:19:09;75715.66;;;-148.52;100.00
3254;BME280;1639;42.804;23.342;2023-01-01T03:24:53;75736.34;;;-148.52;100.00
3254;BME280;1639;42.804;23.342;2023-01-01T03:27:30;75711.53;;;-148.52;100.00
3254;BME280;1639;42.804;23.342;2023-01-01T03:30:00;75690.81;;;-148.52;100.00
3254;BME280;1639;42.804;23.342;2023-01-01T03:32:51;75674.25;;;-148.52;100.00
3254;BME280;1639;42.804;23.342;2023-01-01T03:37:57;75672.19;;;-148.52;100.00
3254;BME280;1639;42.804;23.342;2023-01-01T03:40:24;75666.00;;;-148.52;100.00
3254;BME280;1639;42.804;23.342;2023-01-01T03:42:58;75657.72;;;-148.52;100.00
3254;BME280;1639;42.804;23.342;2023-01-01T03:45:27;75645.28;;;-148.52;100.00
3254;BME280;1639;42.804;23.342;2023-01-01T03:47:54;75634.94;;;-148.52;100.00
3254;BME280;1639;42.804;23.342;2023-01-01T03:50:27;75630.81;;;-148.52;100.00
3254;BME280;1639;42.804;23.342;2023-01-01T03:53:07;75651.50;;;-148.52;100.00
3254;BME280;1639;42.804;23.342;2023-01-01T03:55:44;75643.22;;;-148.52;100.00
3254;BME280;1639;42.804;23.342;2023-01-01T03:58:17;75641.16;;;-148.52;100.00
3254;BME280;1639;42.804;23.342;2023-01-01T04:00:49;75616.31;;;-148.52;100.00
3254;BME280;1639;42.804;23.342;2023-01-01T04:03:24;75616.31;;;-148.52;100.00
3254;BME280;1639;42.804;23.342;2023-01-01T04:05:51;75614.25;;;-148.52;100.00
3254;BME280;1639;42.804;23.342;2023-01-01T04:08:17;75612.19;;;-148.52;100.00
3254;BME280;1639;42.804;23.342;2023-01-01T04:11:05;75591.47;;;-148.52;100.00
3254;BME280;1639;42.804;23.342;2023-01-01T04:13:51;75593.56;;;-148.52;100.00
3254;BME280;1639;42.804;23.342;2023-01-01T04:16:17;75599.75;;;-148.52;100.00
3254;BME280;1639;42.804;23.342;2023-01-01T04:18:42;75603.91;;;-148.52;100.00
3254;BME280;1639;42.804;23.342;2023-01-01T04:21:08;75591.47;;;-148.52;100.00
3254;BME280;1639;42.804;23.342;2023-01-01T04:23:33;75579.06;;;-148.52;100.00
3254;BME280;1639;42.804;23.342;2023-01-01T04:25:58;75579.06;;;-148.52;100.00
3254;BME280;1639;42.804;23.342;2023-01-01T04:28:24;75581.13;;;-148.52;100.00
3254;BME280;1639;42.804;23.342;2023-01-01T04:30:49;75566.66;;;-148.52;100.00
3254;BME280;1639;42.804;23.342;2023-01-01T04:33:14;75570.78;;;-148.52;100.00
3254;BME280;1639;42.804;23.342;2023-01-01T04:35:40;75577.00;;;-148.52;100.00
3254;BME280;1639;42.804;23.342;2023-01-01T04:38:05;75581.13;;;-148.52;100.00
3254;BME280;1639;42.804;23.342;2023-01-01T04:40:31;75568.72;;;-148.52;100.00
3254;BME280;1639;42.804;23.342;2023-01-01T04:42:56;75564.56;;;-148.52;100.00
3254;BME280;1639;42.804;23.342;2023-01-01T04:45:21;75562.50;;;-148.52;100.00
3254;BME280;1639;42.804;23.342;2023-01-01T04:47:47;75595.63;;;-148.52;100.00
3254;BME280;1639;42.804;23.342;2023-01-01T04:50:12;75577.00;;;-148.52;100.00
3254;BME280;1639;42.804;23.342;2023-01-01T04:52:37;75587.34;;;-148.52;100.00
3254;BME280;1639;42.804;23.342;2023-01-01T04:55:03;75599.75;;;-148.52;100.00
3254;BME280;1639;42.804;23.342;2023-01-01T04:57:29;75612.19;;;-148.52;100.00
3254;BME280;1639;42.804;23.342;2023-01-01T04:59:55;75628.72;;;-148.52;100.00
3254;BME280;1639;42.804;23.342;2023-01-01T05:02:20;75645.28;;;-148.52;100.00
3254;BME280;1639;42.804;23.342;2023-01-01T05:04:45;75661.84;;;-148.52;100.00
3254;BME280;1639;42.804;23.342;2023-01-01T05:07:11;75674.25;;;-148.52;100.00
3254;BME280;1639;42.804;23.342;2023-01-01T05:09:36;75694.97;;;-148.52;100.00
3254;BME280;1639;42.804;23.342;2023-01-01T05:12:02;75703.25;;;-148.52;100.00
3254;BME280;1639;42.804;23.342;2023-01-01T05:14:27;75711.53;;;-148.52;100.00
3254;BME280;1639;42.804;23.342;2023-01-01T05:16:52;75715.66;;;-148.52;100.00
3254;BME280;1639;42.804;23.342;2023-01-01T05:19:18;75719.78;;;-148.52;100.00
3254;BME280;1639;42.804;23.342;2023-01-01T05:21:43;75732.22;;;-148.52;100.00
3254;BME280;1639;42.804;23.342;2023-01-01T05:24:10;75734.28;;;-148.52;100.00
3254;BME280;1639;42.804;23.342;2023-01-01T05:26:39;75728.06;;;-148.52;100.00
3254;BME280;1639;42.804;23.342;2023-01-01T05:29:05;75730.16;;;-148.52;100.00
3254;BME280;1639;42.804;23.342;2023-01-01T05:31:32;75734.28;;;-148.52;100.00
3254;BME280;1639;42.804;23.342;2023-01-01T05:33:59;75728.06;;;-148.52;100.00
3254;BME280;1639;42.804;23.342;2023-01-01T05:36:29;75711.53;;;-148.52;100.00
3254;BME280;1639;42.804;23.342;2023-01-01T05:38:56;75715.66;;;-148.52;100.00
3254;BME280;1639;42.804;23.342;2023-01-01T05:41:22;75699.09;;;-148.52;100.00
3254;BME280;1639;42.804;23.342;2023-01-01T05:43:48;75680.47;;;-148.52;100.00
3254;BME280;1639;42.804;23.342;2023-01-01T05:46:16;75678.41;;;-148.52;100.00
3254;BME280;1639;42.804;23.342;2023-01-01T05:48:42;75678.41;;;-148.52;100.00
3254;BME280;1639;42.804;23.342;2023-01-01T05:53:39;75672.19;;;-148.52;100.00
3254;BME280;1639;42.804;23.342;2023-01-01T05:56:05;75653.56;;;-148.52;100.00
3254;BME280;1639;42.804;23.342;2023-01-01T05:58:32;75637.00;;;-148.52;100.00
3254;BME280;1639;42.804;23.342;2023-01-01T06:01:28;75637.00;;;-148.52;100.00
3254;BME280;1639;42.804;23.342;2023-01-01T06:03:56;75639.09;;;-148.52;100.00
3254;BME280;1639;42.804;23.342;2023-01-01T06:06:27;75634.94;;;-148.52;100.00
3254;BME280;1639;42.804;23.342;2023-01-01T06:08:58;75628.72;;;-148.52;100.00
3254;BME280;1639;42.804;23.342;2023-01-01T06:11:25;75632.88;;;-148.52;100.00
3254;BME280;1639;42.804;23.342;2023-01-01T06:13:52;75647.34;;;-148.52;100.00
3254;BME280;1639;42.804;23.342;2023-01-01T06:16:17;75649.44;;;-148.52;100.00
3254;BME280;1639;42.804;23.342;2023-01-01T06:18:43;75628.72;;;-148.52;100.00
3254;BME280;1639;42.804;23.342;2023-01-01T06:21:11;75616.31;;;-148.52;100.00
3254;BME280;1639;42.804;23.342;2023-01-01T06:23:37;75618.38;;;-148.52;100.00
3254;BME280;1639;42.804;23.342;2023-01-01T06:26:05;75628.72;;;-148.52;100.00
3254;BME280;1639;42.804;23.342;2023-01-01T06:28:30;75622.53;;;-148.52;100.00
3254;BME280;1639;42.804;23.342;2023-01-01T06:30:59;75612.19;;;-148.52;100.00
3254;BME280;1639;42.804;23.342;2023-01-01T06:33:25;75618.38;;;-148.52;100.00
3254;BME280;1639;42.804;23.342;2023-01-01T06:35:51;75624.59;;;-148.52;100.00
3254;BME280;1639;42.804;23.342;2023-01-01T06:38:16;75612.19;;;-148.52;100.00
3254;BME280;1639;42.804;23.342;2023-01-01T06:40:41;75605.97;;;-148.52;100.00
3254;BME280;1639;42.804;23.342;2023-01-01T06:43:07;75597.69;;;-148.52;100.00
3254;BME280;1639;42.804;23.342;2023-01-01T06:45:32;75599.75;;;-148.52;100.00
3254;BME280;1639;42.804;23.342;2023-01-01T06:47:57;75591.47;;;-148.52;100.00
3254;BME280;1639;42.804;23.342;2023-01-01T06:50:23;75595.63;;;-148.52;100.00
3254;BME280;1639;42.804;23.342;2023-01-01T06:52:48;75608.03;;;-148.52;100.00
3254;BME280;1639;42.804;23.342;2023-01-01T06:55:14;75603.91;;;-148.52;100.00
3254;BME280;1639;42.804;23.342;2023-01-01T06:57:39;75597.69;;;-148.52;100.00
3254;BME280;1639;42.804;23.342;2023-01-01T07:00:05;75599.75;;;-148.52;100.00
3254;BME280;1639;42.804;23.342;2023-01-01T07:02:30;75583.22;;;-148.52;100.00
3254;BME280;1639;42.804;23.342;2023-01-01T07:04:56;75568.72;;;-148.52;100.00
3254;BME280;1639;42.804;23.342;2023-01-01T07:07:21;75566.66;;;-148.52;100.00
3254;BME280;1639;42.804;23.342;2023-01-01T07:09:46;75560.44;;;-148.52;100.00
3254;BME280;1639;42.804;23.342;2023-01-01T07:12:12;75574.94;;;-148.52;100.00
3254;BME280;1639;42.804;23.342;2023-01-01T07:14:37;75560.44;;;-148.52;100.00
3254;BME280;1639;42.804;23.342;2023-01-01T07:17:03;75562.50;;;-148.52;100.00
3254;BME280;1639;42.804;23.342;2023-01-01T07:19:28;75581.13;;;-148.52;100.00
3254;BME280;1639;42.804;23.342;2023-01-01T07:21:54;75577.00;;;-148.52;100.00
3254;BME280;1639;42.804;23.342;2023-01-01T07:24:20;75583.22;;;-148.52;100.00
3254;BME280;1639;42.804;23.342;2023-01-01T07:26:46;75585.28;;;-148.52;100.00
3254;BME280;1639;42.804;23.342;2023-01-01T07:29:12;75572.84;;;-148.52;100.00
3254;BME280;1639;42.804;23.342;2023-01-01T07:31:39;75587.34;;;-148.52;100.00
3254;BME280;1639;42.804;23.342;2023-01-01T07:34:06;75601.84;;;-148.52;100.00
3254;BME280;1639;42.804;23.342;2023-01-01T07:36:32;75608.03;;;-148.52;100.00
3254;BME280;1639;42.804;23.342;2023-01-01T07:38:58;75608.03;;;-148.52;100.00
3254;BME280;1639;42.804;23.342;2023-01-01T07:41:23;75620.47;;;-148.52;100.00
3254;BME280;1639;42.804;23.342;2023-01-01T07:43:49;75626.66;;;-148.52;100.00
3254;BME280;1639;42.804;23.342;2023-01-01T07:46:14;75637.00;;;-148.52;100.00
3254;BME280;1639;42.804;23.342;2023-01-01T07:48:41;75630.81;;;-148.52;100.00
3254;BME280;1639;42.804;23.342;2023-01-01T07:51:06;75634.94;;;-148.52;100.00
3254;BME280;1639;42.804;23.342;2023-01-01T07:53:32;75632.88;;;-148.52;100.00
3254;BME280;1639;42.804;23.342;2023-01-01T07:55:57;75630.81;;;-148.52;100.00
3254;BME280;1639;42.804;23.342;2023-01-01T07:58:23;75612.19;;;-148.52;100.00
3254;BME280;1639;42.804;23.342;2023-01-01T08:00:48;75599.75;;;-148.52;100.00
3254;BME280;1639;42.804;23.342;2023-01-01T08:03:14;75595.63;;;-148.52;100.00
3254;BME280;1639;42.804;23.342;2023-01-01T08:05:40;75591.47;;;-148.52;100.00
3254;BME280;1639;42.804;23.342;2023-01-01T08:08:06;75581.13;;;-148.52;100.00
3254;BME280;1639;42.804;23.342;2023-01-01T08:10:31;75579.06;;;-148.52;100.00
3254;BME280;1639;42.804;23.342;2023-01-01T08:13:01;75570.78;;;-148.52;100.00
3254;BME280;1639;42.804;23.342;2023-01-01T08:15:27;75554.22;;;-148.52;100.00
3254;BME280;1639;42.804;23.342;2023-01-01T08:18:00;75539.75;;;-148.52;100.00
3254;BME280;1639;42.804;23.342;2023-01-01T08:20:27;75525.25;;;-148.52;100.00
3254;BME280;1639;42.804;23.342;2023-01-01T08:22:53;75514.91;;;-148.52;100.00
3254;BME280;1639;42.804;23.342;2023-01-01T08:25:19;75485.94;;;-148.52;100.00
3254;BME280;1639;42.804;23.342;2023-01-01T08:27:45;75467.31;;;-148.52;100.00
3254;BME280;1639;42.804;23.342;2023-01-01T08:30:13;75463.16;;;-148.52;100.00
3254;BME280;1639;42.804;23.342;2023-01-01T08:32:38;75479.72;;;-148.52;100.00
3254;BME280;1639;42.804;23.342;2023-01-01T08:35:04;75473.53;;;-148.52;100.00
3254;BME280;1639;42.804;23.342;2023-01-01T08:37:30;75471.44;;;-148.52;100.00
3254;BME280;1639;42.804;23.342;2023-01-01T08:39:55;75461.09;;;-148.52;100.00
3254;BME280;1639;42.804;23.342;2023-01-01T08:42:21;75450.75;;;-148.52;100.00
3254;BME280;1639;42.804;23.342;2023-01-01T08:44:46;75436.28;;;-148.52;100.00
3254;BME280;1639;42.804;23.342;2023-01-01T08:47:23;75417.66;;;-148.52;100.00
3254;BME280;1639;42.804;23.342;2023-01-01T08:49:49;75405.22;;;-148.52;100.00
3254;BME280;1639;42.804;23.342;2023-01-01T08:52:14;75394.88;;;-148.52;100.00
3254;BME280;1639;42.804;23.342;2023-01-01T08:54:40;75388.66;;;-148.52;100.00
3254;BME280;1639;42.804;23.342;2023-01-01T08:57:05;75372.13;;;-148.52;100.00
3254;BME280;1639;42.804;23.342;2023-01-01T08:59:31;75367.97;;;-148.52;100.00
3254;BME280;1639;42.804;23.342;2023-01-01T09:01:56;75349.34;;;-148.52;100.00
3254;BME280;1639;42.804;23.342;2023-01-01T09:04:22;75326.59;;;-148.52;100.00
3254;BME280;1639;42.804;23.342;2023-01-01T09:06:47;75307.97;;;-148.52;100.00
3254;BME280;1639;42.804;23.342;2023-01-01T09:09:13;75285.19;;;-148.52;100.00
3254;BME280;1639;42.804;23.342;2023-01-01T09:11:38;75272.78;;;-148.52;100.00
3254;BME280;1639;42.804;23.342;2023-01-01T09:14:03;75256.22;;;-148.52;100.00
3254;BME280;1639;42.804;23.342;2023-01-01T09:16:29;75241.75;;;-148.52;100.00
3254;BME280;1639;42.804;23.342;2023-01-01T09:18:54;75218.97;;;-148.52;100.00
3254;BME280;1639;42.804;23.342;2023-01-01T09:21:19;75223.13;;;-148.52;100.00
3254;BME280;1639;42.804;23.342;2023-01-01T09:23:45;75208.63;;;-148.52;100.00
3254;BME280;1639;42.804;23.342;2023-01-01T09:26:10;75196.22;;;-148.52;100.00
3254;BME280;1639;42.804;23.342;2023-01-01T09:28:36;75190.00;;;-148.52;100.00
3254;BME280;1639;42.804;23.342;2023-01-01T09:31:02;75194.16;;;-148.52;100.00
3254;BME280;1639;42.804;23.342;2023-01-01T09:33:33;75171.38;;;-148.52;100.00
3254;BME280;1639;42.804;23.342;2023-01-01T09:36:12;75165.19;;;-148.52;100.00
3254;BME280;1639;42.804;23.342;2023-01-01T09:38:38;75144.47;;;-148.52;100.00
3254;BME280;1639;42.804;23.342;2023-01-01T09:43:54;75125.88;;;-148.52;100.00
3254;BME280;1639;42.804;23.342;2023-01-01T09:46:24;75132.06;;;-148.52;100.00
3254;BME280;1639;42.804;23.342;2023-01-01T09:49:00;75127.94;;;-148.52;100.00
3254;BME280;1639;42.804;23.342;2023-01-01T09:51:29;75144.47;;;-148.52;100.00
3254;BME280;1639;42.804;23.342;2023-01-01T09:54:03;75119.66;;;-148.52;100.00
3254;BME280;1639;42.804;23.342;2023-01-01T09:56:31;75090.69;;;-148.52;100.00
3254;BME280;1639;42.804;23.342;2023-01-01T09:58:59;75084.47;;;-148.52;100.00
3254;BME280;1639;42.804;23.342;2023-01-01T10:07:11;75051.38;;;-148.52;100.00
3254;BME280;1639;42.804;23.342;2023-01-01T10:13:05;75026.53;;;-148.52;100.00
3254;BME280;1639;42.804;23.342;2023-01-01T10:15:35;75014.13;;;-148.52;100.00
3254;BME280;1639;42.804;23.342;2023-01-01T10:18:07;75012.06;;;-148.52;100.00
3254;BME280;1639;42.804;23.342;2023-01-01T10:20:37;75032.75;;;-148.52;100.00
3254;BME280;1639;42.804;23.342;2023-01-01T10:23:27;75043.09;;;-148.52;100.00
3254;BME280;1639;42.804;23.342;2023-01-01T10:25:57;75036.88;;;-148.52;100.00
3254;BME280;1639;42.804;23.342;2023-01-01T10:31:26;75024.47;;;-148.52;100.00
3254;BME280;1639;42.804;23.342;2023-01-01T10:33:52;75012.06;;;-148.52;100.00
3254;BME280;1639;42.804;23.342;2023-01-01T10:36:18;75003.78;;;-148.52;100.00
3254;BME280;1639;42.804;23.342;2023-01-01T10:38:45;74983.06;;;-148.52;100.00
3254;BME280;1639;42.804;23.342;2023-01-01T10:41:12;74972.72;;;-148.52;100.00
3254;BME280;1639;42.804;23.342;2023-01-01T10:43:38;74958.25;;;-148.52;100.00
3254;BME280;1639;42.804;23.342;2023-01-01T10:46:04;74945.84;;;-148.52;100.00
3254;BME280;1639;42.804;23.342;2023-01-01T10:48:31;74937.56;;;-148.52;100.00
3254;BME280;1639;42.804;23.342;2023-01-01T10:51:21;74916.88;;;-148.52;100.00
3254;BME280;1639;42.804;23.342;2023-01-01T10:53:49;74879.63;;;-148.52;100.00
3254;BME280;1639;42.804;23.342;2023-01-01T10:56:20;74879.63;;;-148.52;100.00
3254;BME280;1639;42.804;23.342;2023-01-01T10:58:51;74858.94;;;-148.52;100.00
3254;BME280;1639;42.804;23.342;2023-01-01T11:01:27;74846.50;;;-148.52;100.00
3254;BME280;1639;42.804;23.342;2023-01-01T11:06:27;74823.75;;;-148.52;100.00
3254;BME280;1639;42.804;23.342;2023-01-01T11:08:57;74798.91;;;-148.52;100.00
3254;BME280;1639;42.804;23.342;2023-01-01T11:11:30;74782.38;;;-148.52;100.00
3254;BME280;1639;42.804;23.342;2023-01-01T11:13:58;74759.59;;;-148.52;100.00
3254;BME280;1639;42.804;23.342;2023-01-01T11:16:26;74747.19;;;-148.52;100.00
3254;BME280;1639;42.804;23.342;2023-01-01T11:19:01;74730.63;;;-148.52;100.00
3254;BME280;1639;42.804;23.342;2023-01-01T11:21:26;74714.09;;;-148.52;100.00
3254;BME280;1639;42.804;23.342;2023-01-01T11:24:17;74697.53;;;-148.52;100.00
3254;BME280;1639;42.804;23.342;2023-01-01T11:26:43;74676.84;;;-148.52;100.00
3254;BME280;1639;42.804;23.342;2023-01-01T11:31:40;74647.88;;;-148.52;100.00
3254;BME280;1639;42.804;23.342;2023-01-01T11:36:52;74620.97;;;-148.52;100.00
3254;BME280;1639;42.804;23.342;2023-01-01T11:39:30;74616.84;;;-148.52;100.00
3254;BME280;1639;42.804;23.342;2023-01-01T11:41:57;74602.34;;;-148.52;100.00
3254;BME280;1639;42.804;23.342;2023-01-01T11:44:40;74581.66;;;-148.52;100.00
3254;BME280;1639;42.804;23.342;2023-01-01T11:47:21;74571.31;;;-148.52;100.00
3254;BME280;1639;42.804;23.342;2023-01-01T11:49:54;74577.53;;;-148.52;100.00
3254;BME280;1639;42.804;23.342;2023-01-01T11:52:42;74556.84;;;-148.52;100.00
3254;BME280;1639;42.804;23.342;2023-01-01T11:57:47;74519.59;;;-148.52;100.00
3254;BME280;1639;42.804;23.342;2023-01-01T12:00:16;74509.25;;;-148.52;100.00
3254;BME280;1639;42.804;23.342;2023-01-01T12:02:58;74490.63;;;-148.52;100.00
3254;BME280;1639;42.804;23.342;2023-01-01T12:05:42;74476.16;;;-148.52;100.00
3254;BME280;1639;42.804;23.342;2023-01-01T12:08:14;74453.38;;;-148.52;100.00
3254;BME280;1639;42.804;23.342;2023-01-01T12:10:54;74440.97;;;-148.52;100.00
3254;BME280;1639;42.804;23.342;2023-01-01T12:13:26;74436.84;;;-148.52;100.00
3254;BME280;1639;42.804;23.342;2023-01-01T12:16:17;74412.00;;;-148.52;100.00
3254;BME280;1639;42.804;23.342;2023-01-01T12:18:56;74399.59;;;-148.52;100.00
3254;BME280;1639;42.804;23.342;2023-01-01T12:21:26;74407.88;;;-148.52;100.00
3254;BME280;1639;42.804;23.342;2023-01-01T12:23:53;74399.59;;;-148.52;100.00
3254;BME280;1639;42.804;23.342;2023-01-01T12:26:33;74387.19;;;-148.52;100.00
3254;BME280;1639;42.804;23.342;2023-01-01T12:42:05;74329.25;;;-148.52;100.00
3254;BME280;1639;42.804;23.342;2023-01-01T12:44:50;74320.97;;;-148.52;100.00
3254;BME280;1639;42.804;23.342;2023-01-01T12:53:39;74294.09;;;-148.52;100.00
3254;BME280;1639;42.804;23.342;2023-01-01T12:56:11;74275.47;;;-148.52;100.00
3254;BME280;1639;42.804;23.342;2023-01-01T13:01:26;74279.59;;;-148.52;100.00
3254;BME280;1639;42.804;23.342;2023-01-01T13:03:59;74275.47;;;-148.52;100.00
3254;BME280;1639;42.804;23.342;2023-01-01T13:06:50;74275.47;;;-148.52;100.00
3254;BME280;1639;42.804;23.342;2023-01-01T13:09:21;74265.13;;;-148.52;100.00
3254;BME280;1639;42.804;23.342;2023-01-01T13:11:50;74265.13;;;-148.52;100.00
3254;BME280;1639;42.804;23.342;2023-01-01T13:14:17;74263.03;;;-148.52;100.00
3254;BME280;1639;42.804;23.342;2023-01-01T13:16:53;74260.97;;;-148.52;100.00
3254;BME280;1639;42.804;23.342;2023-01-01T13:19:33;74260.97;;;-148.52;100.00
3254;BME280;1639;42.804;23.342;2023-01-01T13:43:52;74227.88;;;-148.52;100.00
3254;BME280;1639;42.804;23.342;2023-01-01T13:46:27;74215.47;;;-148.52;100.00
3254;BME280;1639;42.804;23.342;2023-01-01T13:55:14;74221.66;;;-148.52;100.00
3254;BME280;1639;42.804;23.342;2023-01-01T13:58:08;74229.94;;;-148.52;100.00
3254;BME280;1639;42.804;23.342;2023-01-01T14:00:59;74221.66;;;-148.52;100.00
3254;BME280;1639;42.804;23.342;2023-01-01T14:03:27;74213.41;;;-148.52;100.00
3254;BME280;1639;42.804;23.342;2023-01-01T14:05:58;74215.47;;;-148.52;100.00
3254;BME280;1639;42.804;23.342;2023-01-01T14:08:28;74215.47;;;-148.52;100.00
3254;BME280;1639;42.804;23.342;2023-01-01T14:10:54;74219.59;;;-148.52;100.00
3254;BME280;1639;42.804;23.342;2023-01-01T14:13:20;74221.66;;;-148.52;100.00
3254;BME280;1639;42.804;23.342;2023-01-01T14:15:55;74219.59;;;-148.52;100.00
3254;BME280;1639;42.804;23.342;2023-01-01T14:21:10;74242.38;;;-148.52;100.00
3254;BME280;1639;42.804;23.342;2023-01-01T14:23:42;74254.78;;;-148.52;100.00
3254;BME280;1639;42.804;23.342;2023-01-01T14:26:11;74258.91;;;-148.52;100.00
3254;BME280;1639;42.804;23.342;2023-01-01T14:28:38;74240.28;;;-148.52;100.00
3254;BME280;1639;42.804;23.342;2023-01-01T14:31:09;74248.56;;;-148.52;100.00
3254;BME280;1639;42.804;23.342;2023-01-01T14:33:36;74271.31;;;-148.52;100.00
3254;BME280;1639;42.804;23.342;2023-01-01T14:36:04;74283.75;;;-148.52;100.00
3254;BME280;1639;42.804;23.342;2023-01-01T14:38:34;74300.28;;;-148.52;100.00